Date,TemperatureHighF,TemperatureAvgF,TemperatureLowF,DewpointHighF,DewpointAvgF,DewpointLowF,HumidityHigh,HumidityAvg,HumidityLow,PressureMaxIn,PressureMinIn,WindSpeedMaxMPH,WindSpeedAvgMPH,GustSpeedMaxMPH,PrecipitationSumIn
2013-1-7,52,52,52,47,46,46,82,81,80,30.19,30.18,1,0,3,0.00
2013-1-8,58,48,42,47,42,38,89,80,54,30.28,30.19,2,1,5,0.00
2013-1-9,68,52,46,50,45,43,88,77,50,30.19,30.10,2,0,98,0.38
2013-1-10,54,52,49,50,46,43,95,82,72,30.10,29.81,4,1,7,0.02
2013-1-11,66,50,43,51,45,42,99,85,53,29.85,29.65,3,1,6,0.01
2013-1-12,71,52,41,47,44,36,95,76,39,30.12,29.84,3,1,6,0.05
2013-1-13,50,49,49,45,44,44,84,83,82,30.01,29.98,0,0,2,0.00
2013-1-14,60,54,48,51,47,41,95,78,63,29.89,29.69,4,1,8,0.01
2013-1-15,65,51,46,47,40,36,83,68,39,29.89,29.63,5,1,9,0.00
2013-1-16,48,44,42,44,40,37,94,87,81,29.55,29.40,4,1,8,0.07
2013-1-17,49,43,40,44,38,36,87,84,69,29.43,29.26,4,1,8,0.00
2013-1-18,57,46,40,37,34,32,90,63,42,29.60,29.34,4,2,12,0.00
2013-2-7,42,42,42,36,35,34,78,76,74,29.54,29.54,2,1,4,0.00
2013-2-8,55,47,42,34,30,25,71,54,39,29.70,29.54,105,4,108,0.00
2013-2-12,68,50,44,47,44,41,97,81,44,29.67,29.51,2,0,5,0.00
2013-2-13,66,48,41,42,36,33,88,66,37,29.79,29.63,4,2,9,0.00
2013-2-14,60,48,40,37,35,33,79,62,38,29.97,29.79,4,2,8,0.00
2013-2-15,64,49,40,40,37,35,84,66,41,29.99,29.91,2,0,4,0.00
2013-2-16,67,50,42,43,38,34,83,65,32,30.04,29.96,3,1,6,0.00
2013-2-17,70,47,40,44,38,34,88,73,39,30.03,29.93,4,1,7,0.00
2013-2-18,58,46,40,42,38,35,89,74,52,29.98,29.91,3,1,74,0.00
2013-2-19,65,48,38,37,33,26,80,59,30,29.99,29.90,4,1,6,0.00
2013-2-20,66,48,36,39,36,30,81,63,35,29.97,29.86,3,1,4,0.00
2013-2-21,70,51,39,45,39,35,84,65,28,29.88,29.65,2,1,4,0.00
2013-2-22,70,53,48,52,47,44,92,81,50,29.64,29.40,8,2,15,0.01
2013-3-1,56,51,44,42,40,37,84,66,51,30.11,29.83,3,2,5,0.00
2013-3-2,62,53,49,44,38,30,75,59,35,29.98,29.75,4,2,8,0.00
2013-3-3,74,54,42,47,40,32,85,62,34,30.05,29.96,4,1,8,0.00
2013-3-4,77,55,43,47,43,40,91,67,33,30.17,30.03,5,1,8,0.00
2013-3-5,62,53,43,46,42,33,88,68,39,30.17,29.93,2,1,5,0.00
2013-3-6,62,56,52,56,48,39,99,76,46,29.92,29.66,13,3,25,0.50
2013-3-7,68,58,55,57,56,55,99,92,68,29.76,29.67,4,2,7,0.00
2013-3-8,62,59,32,56,55,54,95,87,76,29.75,29.62,7,2,11,0.04
2013-3-17,55,50,44,45,38,34,80,65,48,30.08,29.75,8,3,15,0.02
2013-3-18,60,55,51,56,50,45,95,82,68,29.74,29.46,14,5,23,0.44
2013-3-19,76,59,51,49,46,44,81,63,35,29.79,29.64,3,1,6,0.01
2013-3-20,66,53,47,50,45,39,92,75,44,29.78,29.64,4,1,8,0.07
2013-3-21,77,59,48,52,43,32,95,59,28,29.94,29.62,5,1,10,0.00
2013-3-22,74,58,44,50,42,30,84,60,23,29.93,29.84,2,1,4,0.00
2013-3-23,74,58,46,51,48,44,91,72,44,29.91,29.76,4,1,8,0.00
2013-3-24,78,65,51,50,42,31,90,47,22,29.75,29.46,8,4,24,0.00
2013-4-18,93,76,65,59,53,47,80,50,23,30.14,29.47,2,0,5,0.22
2013-5-20,68,66,64,51,50,49,62,58,49,30.10,30.08,2,0,3,0.22
2013-5-21,72,66,60,57,52,45,87,63,40,30.09,29.83,4,1,8,0.01
2013-5-22,79,66,59,64,59,56,92,78,47,29.83,29.39,4,2,7,0.00
2013-5-23,70,63,59,60,58,54,95,83,56,29.67,29.43,2,0,4,0.00
2013-5-24,82,67,59,62,51,43,88,60,35,29.87,29.64,4,2,8,0.00
2013-6-9,97,76,66,68,60,48,86,62,35,29.97,29.85,8,1,11,0.00
2013-6-10,86,73,66,65,60,54,90,65,41,29.90,29.84,4,1,6,0.00
2013-6-11,93,76,63,62,59,56,87,59,31,29.94,29.88,3,1,5,0.00
2013-6-12,93,78,65,62,56,47,85,51,24,30.01,29.93,4,1,9,0.00
2013-6-13,87,74,67,54,52,47,59,48,27,30.04,29.95,4,1,28,0.06
2013-6-14,100,78,67,61,55,51,63,46,24,30.03,29.98,3,1,4,0.00
2013-6-15,101,82,70,67,63,61,79,55,31,30.06,30.01,3,0,4,0.00
2013-6-16,102,85,70,68,65,63,80,55,32,30.07,30.03,2,0,4,0.00
2013-6-17,103,85,69,68,64,58,88,54,29,30.06,29.98,2,1,4,0.00
2013-6-18,107,88,74,72,65,62,71,48,32,30.00,29.97,3,0,5,0.00
2013-6-19,108,90,75,70,64,58,75,46,28,30.02,29.97,3,1,4,0.00
2013-6-20,108,90,77,71,64,58,68,46,24,30.02,29.97,3,1,6,0.00
2013-6-21,104,87,75,73,66,59,82,53,25,30.03,29.99,3,1,6,0.00
2013-6-22,100,85,72,70,65,56,81,54,33,30.05,29.99,2,1,4,0.00
2013-7-20,91,84,80,71,68,64,73,59,41,30.06,29.92,1,0,4,0.00
2013-7-21,103,83,70,71,66,60,88,60,31,30.03,29.93,8,1,23,0.20
2013-8-27,100,78,71,72,69,66,91,75,37,29.88,29.82,2,1,5,0.01
2013-8-28,99,80,68,71,66,22,94,66,10,29.97,29.83,97,2,97,0.00
2013-8-29,94,80,69,69,66,62,88,65,38,30.07,29.97,2,0,4,0.00
2013-8-30,82,74,70,70,66,64,84,78,56,30.06,29.97,3,1,4,0.00
2013-8-31,94,78,69,69,65,62,81,67,41,30.05,29.99,4,1,27,8.83
2013-9-1,100,81,67,67,61,51,83,54,28,30.07,30.00,4,1,5,0.00
2013-9-2,92,78,67,66,62,54,82,61,31,30.13,30.05,2,1,4,0.00
2013-10-6,94,74,69,68,66,29,89,76,57,30.11,29.97,25,1,68,0.11
2013-11-10,64,61,54,57,54,50,89,80,70,29.64,29.48,4,2,10,0.00
2013-12-5,44,35,32,40,40,38,85,19,84,30.13,30.12,1,0,2,0.00